• Join FlightAware (Why Join?)
  • Login
  • US Flag 
01:46PM EDT


 

Airport Tracker/Info


-or-


 

Live Flight TrackerFlight Track Log ✈ UPS2774 ✈ 08-Apr-2014 ✈ KSDF - KIAH

Flight Track Log - Related Links

Times and Time Zones

All times are in EDT time to prevent confusion due to time zone crossing. See the UPS2774 flight status page for this flight to view local times or setup timezone preferences in your user account.

Time Position Orientation Groundspeed Altitude Reporting Facility
EDT Latitude Longitude Course Direction KTS MPH feet Rate Location/Type
04:58PM 38.1334 -86.0515 240° Southwest 348 400 13,100  Level FlightAware ADS-B
05:00PM 38.0408 -86.3809 265° West  Level FlightAware Approximate
05:01PM 38.0304 -86.5279 265° West  Level FlightAware Approximate
05:01PM 38.0970 -86.3526 263° West 352 405 20,000  Level FlightAware ADS-B
05:02PM 38.0901 -86.4261 264° West 369 425 22,100 2,100 Climbing FlightAware ADS-B
05:03PM 38.0700 -86.6396 263° West 392 451 25,600 2,340 Climbing FlightAware ADS-B
05:04PM 38.0605 -86.7419 263° West 403 464 28,000 2,340 Climbing FlightAware ADS-B
05:05PM 38.0452 -86.8983 263° West 409 471 29,200 1,860 Climbing FlightAware ADS-B
05:05PM 38.0384 -86.9701 263° West 413 475 30,300 1,980 Climbing FlightAware ADS-B
05:06PM 38.0265 -87.0920 263° West 414 476 31,900 1,020 Climbing FlightAware ADS-B
05:07PM 38.0178 -87.1787 263° West 432 497 32,000 60 Climbing FlightAware ADS-B
05:08PM 38.0051 -87.3081 263° West 428 493 32,000  Level FlightAware ADS-B
05:08PM 37.9970 -87.3868 263° West 429 494 32,000 540 Level FlightAware ADS-B
05:09PM 37.9968 -87.4893 274° West 426 490 32,700 720 Climbing FlightAware ADS-B
05:10PM 37.9992 -87.5407 273° West 433 498 33,000 240 Climbing FlightAware ADS-B
05:10PM 38.0045 -87.6644 273° West 442 509 33,000 -120 Level FlightAware ADS-B
05:11PM 38.0079 -87.7450 273° West 443 510 32,900  Descending FlightAware ADS-B
05:11PM 38.0140 -87.8777 273° West 443 510 33,000 120 Climbing FlightAware ADS-B
05:12PM 38.0166 -87.9355 273° West 445 512 33,100 720 Climbing FlightAware ADS-B
05:13PM 38.0227 -88.0566 274° West 424 488 33,900 1,080 Climbing FlightAware ADS-B
05:13PM 38.0260 -88.1364 269° West 415 478 34,500 1,080 Climbing FlightAware ADS-B
05:14PM 38.0198 -88.2179 260° West 415 478 35,100 840 Climbing FlightAware ADS-B
05:15PM 37.9936 -88.3848 259° West 415 478 35,900 480 Climbing FlightAware ADS-B
05:15PM 37.9813 -88.4400 248° West 415 478 35,900  Level FlightAware ADS-B
05:16PM 37.9544 -88.4981 231° Southwest 418 481 35,900 60 Level FlightAware ADS-B
05:16PM 37.8988 -88.5763 228° Southwest 421 484 36,000 60 Climbing FlightAware ADS-B
05:17PM 37.8618 -88.6269 227° Southwest 420 483 36,000  Level FlightAware ADS-B
05:18PM 37.8156 -88.6896 227° Southwest 421 484 36,000  Level FlightAware ADS-B
05:18PM 37.7666 -88.7558 227° Southwest 422 486 36,000  Level FlightAware ADS-B
05:19PM 37.7260 -88.8108 227° Southwest 423 487 36,000  Level FlightAware ADS-B
05:19PM 37.6832 -88.8689 227° Southwest 423 487 36,000  Level FlightAware ADS-B
05:20PM 37.6133 -88.9633 227° Southwest 421 484 36,000  Level Memphis Center
05:22PM 37.4511 -89.1817 227° Southwest 423 487 36,000 -60 Level Kansas City Center
05:24PM 37.2753 -89.4164 227° Southwest 423 487 35,900 -60 Descending Memphis Center
05:25PM 37.1919 -89.5208 225° Southwest 424 488 35,900  Level Memphis Center
05:26PM 37.1039 -89.6189 222° Southwest 425 489 36,000  Climbing Memphis Center
05:27PM 37.0142 -89.7164 221° Southwest 426 490 36,000  Level Memphis Center
05:28PM 36.9247 -89.8142 221° Southwest 427 491 36,000 -60 Level Memphis Center
05:29PM 36.8175 -89.9314 221° Southwest 429 494 35,900  Descending Memphis Center
05:31PM 36.7281 -90.0286 221° Southwest 429 494 36,000  Climbing Memphis Center
05:32PM 36.6386 -90.1261 221° Southwest 429 494 36,000  Level Memphis Center
05:33PM 36.5486 -90.2233 221° Southwest 429 494 36,000  Level Memphis Center
05:34PM 36.4558 -90.3233 221° Southwest 430 495 36,000  Level Memphis Center
05:39PM 35.9202 -90.8945 221° Southwest 440 506 36,000  Level FlightAware ADS-B (KFAR)
05:40PM 35.8583 -90.9600 221° Southwest 440 506 36,000  Level FlightAware ADS-B (KFAR)
05:41PM 35.7940 -91.0276 221° Southwest 440 506 36,000  Level FlightAware ADS-B (KFAR)
05:41PM 35.7341 -91.0909 221° Southwest 441 507 36,000  Level FlightAware ADS-B (KFAR)
05:42PM 35.6721 -91.1559 221° Southwest 440 506 36,000  Level FlightAware ADS-B (KFAR)
05:43PM 35.5921 -91.2394 221° Southwest 441 507 36,000  Level FlightAware ADS-B (KFAR)
05:43PM 35.5289 -91.3053 221° Southwest 441 507 36,000  Level FlightAware ADS-B (KFAR)
05:44PM 35.4658 -91.3620 209° Southwest 448 516 36,000  Level FlightAware ADS-B (KFAR)
05:45PM 35.3833 -91.4014 198° South 456 525 36,000  Level FlightAware ADS-B (KFAR)
05:45PM 35.3128 -91.4290 198° South 456 525 36,000  Level FlightAware ADS-B (KFAR)
05:46PM 35.2262 -91.4621 198° South 455 524 36,000  Level FlightAware ADS-B (KFAR)
05:47PM 35.1434 -91.4941 198° South 455 524 36,000  Level FlightAware ADS-B (KFAR)
05:47PM 35.0800 -91.5187 198° South 455 524 36,000  Level FlightAware ADS-B (KFAR)
05:48PM 34.9809 -91.5573 198° South 454 522 36,000  Level FlightAware ADS-B (KFAR)
05:49PM 34.9037 -91.5871 198° South 454 522 36,000  Level FlightAware ADS-B (KFAR)
05:49PM 34.8239 -91.6177 198° South 455 524 36,000  Level FlightAware ADS-B (KFAR)
05:50PM 34.7397 -91.6502 198° South 455 524 36,000  Level FlightAware ADS-B (KFAR)
05:51PM 34.6645 -91.6791 198° South 456 525 36,000  Level FlightAware ADS-B (KFAR)
05:51PM 34.5815 -91.7108 197° South 457 526 36,000  Level FlightAware ADS-B (KFAR)
05:52PM 34.5030 -91.7408 198° South 457 526 36,000  Level FlightAware ADS-B (KFAR)
05:53PM 34.4241 -91.7709 198° South 458 527 36,000  Level FlightAware ADS-B (KFAR)
05:54PM 34.3347 -91.8048 197° South 458 527 36,000  Level FlightAware ADS-B (KFAR)
05:54PM 34.2535 -91.8357 198° South 459 528 36,000  Level FlightAware ADS-B (KFAR)
05:55PM 34.1821 -91.8627 198° South 461 531 36,000  Level FlightAware ADS-B (KFAR)
05:56PM 34.0991 -91.8941 198° South 461 531 36,000  Level FlightAware ADS-B (KFAR)
05:56PM 34.0083 -91.9284 197° South 462 532 36,000  Level FlightAware ADS-B (KFAR)
05:57PM 33.9413 -91.9536 198° South 463 533 36,000  Level FlightAware ADS-B (KFAR)
05:59PM 33.6635 -92.0578 197° South 462 532 36,000  Level FlightAware ADS-B (KDTN)
06:00PM 33.6008 -92.0812 197° South 463 533 36,000  Level FlightAware ADS-B (KDTN)
06:01PM 33.4379 -92.1418 197° South 464 534 36,000  Level FlightAware ADS-B (KDTN)
06:02PM 33.3355 -92.1800 197° South 464 534 36,000  Level FlightAware ADS-B (KDTN)
06:03PM 33.1762 -92.2388 197° South 465 535 36,000  Level FlightAware ADS-B (KDTN)
06:08PM 32.4928 -92.4893 197° South 467 537 36,000  Level FlightAware ADS-B (KDTN)
06:09PM 32.4732 -92.4964 198° South 466 536 36,000  Level FlightAware ADS-B (KHOU)
06:09PM 32.4128 -92.5182 198° South 465 535 36,000  Level FlightAware ADS-B (KHOU)
06:10PM 32.3484 -92.5414 198° South 466 536 36,000  Level FlightAware ADS-B (KHOU)
06:10PM 32.3039 -92.5575 198° South 467 537 36,000  Level FlightAware ADS-B (KHOU)
06:11PM 32.2242 -92.5865 198° South 467 537 36,000  Level FlightAware ADS-B (KHOU)
06:11PM 32.1620 -92.6091 198° South 468 539 36,000  Level FlightAware ADS-B (KHOU)
06:11PM 32.1453 -92.6151 197° South 469 540 36,000  Level FlightAware ADS-B (KDTN)
06:12PM 32.1246 -92.6226 198° South 468 539 36,000  Level FlightAware ADS-B (KHOU)
06:12PM 32.0400 -92.6530 197° South 469 540 36,000  Level FlightAware ADS-B (KHOU)
06:13PM 31.9750 -92.6829 208° Southwest 457 526 36,000 -240 Level FlightAware ADS-B (KDTN)
06:13PM 31.9207 -92.7282 220° Southwest 442 509 35,800 -540 Descending FlightAware ADS-B (KDTN)
06:14PM 31.8633 -92.7836 220° Southwest 447 514 35,400 -360 Descending FlightAware ADS-B (KDTN)
06:15PM 31.7081 -92.9341 220° Southwest 442 509 35,000 -240 Descending FlightAware ADS-B (KHOU)
06:16PM 31.6604 -92.9801 220° Southwest 441 507 35,000  Level FlightAware ADS-B (KHOU)
06:17PM 31.5790 -93.0583 220° Southwest 439 505 35,000  Level FlightAware ADS-B (KHOU)
06:17PM 31.5325 -93.1030 220° Southwest 437 503 35,000  Level FlightAware ADS-B (KHOU)
06:18PM 31.4876 -93.1462 220° Southwest 435 501 35,000 -120 Level FlightAware ADS-B (KHOU)
06:19PM 31.4056 -93.2248 220° Southwest 431 496 34,900 -120 Descending FlightAware ADS-B (KDTN)
06:19PM 31.3995 -93.2306 220° Southwest 430 495 34,900 -660 Level FlightAware ADS-B (KHOU)
06:19PM 31.3471 -93.2809 220° Southwest 429 494 34,500 -1,440 Descending FlightAware ADS-B (KHOU)
06:20PM 31.2994 -93.3267 220° Southwest 452 520 33,400 -2,520 Descending FlightAware ADS-B (KHOU)
06:20PM 31.2616 -93.3630 220° Southwest 469 540 32,000 -2,700 Descending FlightAware ADS-B (KHOU)
06:21PM 31.1913 -93.4295 219° Southwest 477 549 30,500 -1,860 Descending FlightAware ADS-B (KHOU)
06:21PM 31.1396 -93.4783 219° Southwest 457 526 30,000 -480 Descending FlightAware ADS-B (KHOU)
06:22PM 31.0738 -93.5408 220° Southwest 462 532 30,000  Level FlightAware ADS-B (KHOU)
06:23PM 31.0242 -93.5882 220° Southwest 472 543 30,000  Level FlightAware ADS-B (KHOU)
06:23PM 30.9725 -93.6372 220° Southwest 476 548 30,000 -120 Level FlightAware ADS-B (KHOU)
06:24PM 30.9209 -93.6856 219° Southwest 468 539 29,900 -900 Descending FlightAware ADS-B (KHOU)
06:24PM 30.8713 -93.7324 220° Southwest 456 525 29,100 -2,340 Descending FlightAware ADS-B (KHOU)
06:25PM 30.8233 -93.7780 219° Southwest 450 518 27,600 -3,120 Descending FlightAware ADS-B (KHOU)
06:25PM 30.7742 -93.8234 220° Southwest 443 510 26,000 -2,940 Descending FlightAware ADS-B (KHOU)
06:26PM 30.7275 -93.8677 220° Southwest 434 499 24,700 -3,000 Descending FlightAware ADS-B (KHOU)
06:26PM 30.6818 -93.9108 220° Southwest 420 483 23,100 -3,180 Descending FlightAware ADS-B (KHOU)
06:27PM 30.6372 -93.9529 220° Southwest 417 480 21,500 -2,700 Descending FlightAware ADS-B (KHOU)
06:27PM 30.5921 -93.9952 220° Southwest 419 482 20,400 -2,160 Descending FlightAware ADS-B (KHOU)
06:28PM 30.5338 -94.0497 219° Southwest 412 474 19,100 -1,980 Descending FlightAware ADS-B
06:28PM 30.5097 -94.0721 220° Southwest 405 466 18,200 -1,680 Descending FlightAware ADS-B
06:29PM 30.4544 -94.1234 219° Southwest 398 458 17,500 -1,800 Descending FlightAware ADS-B
06:29PM 30.4074 -94.1673 219° Southwest 391 450 16,500 -2,040 Descending FlightAware ADS-B
06:30PM 30.3620 -94.2098 219° Southwest 391 450 15,400 -2,040 Descending FlightAware ADS-B
06:30PM 30.3190 -94.2498 220° Southwest 389 448 14,400 -2,040 Descending FlightAware ADS-B
06:31PM 30.2774 -94.2884 219° Southwest 380 437 13,400 -2,100 Descending FlightAware ADS-B
06:31PM 30.2383 -94.3242 219° Southwest 353 406 12,300 -1,740 Descending FlightAware ADS-B
06:32PM 30.2114 -94.3519 229° Southwest 328 377 11,900 -780 Descending FlightAware ADS-B (KHOU)
06:32PM 30.2031 -94.3656 239° Southwest 312 359 11,900 -360 Level FlightAware ADS-B (KHOU)
06:32PM 30.1979 -94.3773 247° West 305 351 11,800 -900 Descending FlightAware ADS-B (KHOU)
06:32PM 30.1923 -94.3956 255° West 296 341 11,600 -1,320 Descending FlightAware ADS-B (KHOU)
06:32PM 30.1856 -94.4201 247° West 298 343 11,200 -1,260 Descending FlightAware ADS-B
06:33PM 30.1673 -94.4630 245° Southwest 267 307 10,600 -1,560 Descending FlightAware ADS-B
06:33PM 30.1580 -94.4872 248° West 255 293 9,900 -1,920 Descending FlightAware ADS-B
06:33PM 30.1509 -94.5073 249° West 260 299 9,500 -1,260 Descending FlightAware ADS-B
06:34PM 30.1445 -94.5260 249° West 262 302 9,300 -840 Descending FlightAware ADS-B
06:34PM 30.1377 -94.5462 249° West 264 304 9,100 -900 Descending FlightAware ADS-B
06:34PM 30.1338 -94.5575 249° West 265 305 8,900 -840 Descending FlightAware ADS-B
06:34PM 30.1241 -94.5860 249° West 271 312 8,700 -960 Descending FlightAware ADS-B
06:35PM 30.1171 -94.6062 249° West 276 318 8,400 -1,020 Descending FlightAware ADS-B
06:35PM 30.1097 -94.6276 248° West 277 319 8,200 -1,020 Descending FlightAware ADS-B
06:35PM 30.1026 -94.6475 249° West 275 316 7,900 -1,080 Descending FlightAware ADS-B
06:35PM 30.0959 -94.6664 248° West 275 316 7,700 -1,020 Descending FlightAware ADS-B
06:36PM 30.0880 -94.6884 248° West 274 315 7,400 -960 Descending FlightAware ADS-B
06:36PM 30.0804 -94.7093 248° West 274 315 7,200 -1,080 Descending FlightAware ADS-B
06:36PM 30.0734 -94.7289 248° West 271 312 6,900 -600 Descending FlightAware ADS-B
06:36PM 30.0661 -94.7492 248° West 267 307 6,900  Level FlightAware ADS-B
06:37PM 30.0569 -94.7752 249° West 265 305 6,900  Level FlightAware ADS-B
06:37PM 30.0474 -94.8016 248° West 268 308 6,900  Level FlightAware ADS-B
06:37PM 30.0384 -94.8271 248° West 267 307 6,900  Level FlightAware ADS-B
06:38PM 30.0287 -94.8546 248° West 268 308 6,900  Level FlightAware ADS-B
06:38PM 30.0214 -94.8747 248° West 268 308 6,900 -240 Level FlightAware ADS-B
06:38PM 30.0138 -94.8961 249° West 257 296 6,800 -480 Descending FlightAware ADS-B (KHOU)
06:39PM 30.0100 -94.9088 256° West 249 287 6,700 -1,020 Descending FlightAware ADS-B (KHOU)
06:39PM 30.0095 -94.9123 262° West 243 280 6,600 -600 Descending FlightAware ADS-B
06:39PM 30.0092 -94.9207 269° West 236 272 6,600 -840 Level FlightAware ADS-B (KHOU)
06:39PM 30.0081 -94.9401 266° West 230 265 6,300 -1,020 Descending FlightAware ADS-B (KHOU)
06:39PM 30.0068 -94.9584 267° West 223 257 6,100 -600 Descending FlightAware ADS-B (KHOU)
06:39PM 30.0063 -94.9749 269° West 217 250 6,000 -600 Descending FlightAware ADS-B (KHOU)
06:40PM 30.0064 -94.9959 272° West 211 243 5,800 -780 Descending FlightAware ADS-B
06:40PM 30.0067 -95.0130 272° West 210 242 5,600 -1,020 Descending FlightAware ADS-B
06:40PM 30.0070 -95.0296 271° West 207 238 5,300 -1,380 Descending FlightAware ADS-B
06:40PM 30.0072 -95.0447 271° West 198 228 4,900 -1,440 Descending FlightAware ADS-B
06:41PM 30.0072 -95.0606 270° West 182 209 4,600 -900 Descending FlightAware ADS-B
06:41PM 30.0072 -95.0718 272° West 169 194 4,500 -960 Descending FlightAware ADS-B (KHOU)
06:41PM 30.0071 -95.0851 270° West 168 193 4,200 -1,200 Descending FlightAware ADS-B (KHOU)
06:41PM 30.0071 -95.0894 272° West 166 191 4,100 -900 Descending FlightAware ADS-B (KHOU)
06:41PM 30.0072 -95.1016 270° West 162 186 3,900 -840 Descending FlightAware ADS-B (KHOU)
06:42PM 30.0072 -95.1156 270° West 161 185 3,700 -840 Descending FlightAware ADS-B (KHOU)
06:42PM 30.0072 -95.1279 271° West 159 183 3,500 -1,020 Descending FlightAware ADS-B (KHOU)
06:42PM 30.0072 -95.1407 270° West 159 183 3,200 -1,020 Descending FlightAware ADS-B (KHOU)
06:42PM 30.0073 -95.1535 270° West 161 185 3,000 -840 Descending FlightAware ADS-B (KHOU)
06:43PM 30.0072 -95.1666 271° West 162 186 2,800 -840 Descending FlightAware ADS-B (KHOU)
06:43PM 30.0072 -95.1782 270° West 162 186 2,600 -840 Descending FlightAware ADS-B (KHOU)
06:43PM 30.0073 -95.1905 271° West 158 182 2,400 -840 Descending FlightAware ADS-B (KHOU)
06:43PM 30.0073 -95.2043 270° West 158 182 2,200 -1,020 Descending FlightAware ADS-B (KHOU)
06:44PM 30.0072 -95.2180 270° West 160 184 1,900 -1,020 Descending FlightAware ADS-B (KHOU)
06:44PM 30.0072 -95.2304 270° West 159 183 1,700 -780 Descending FlightAware ADS-B (KHOU)
06:44PM 30.0072 -95.2428 270° West 150 173 1,500 -840 Descending FlightAware ADS-B (KHOU)
06:45PM 30.0072 -95.2542 270° West 136 157 1,300 -840 Descending FlightAware ADS-B (KHOU)
06:45PM 30.0071 -95.2645 270° West 124 143 1,100 -660 Descending FlightAware ADS-B (KHOU)
06:45PM 30.0071 -95.2741 271° West 124 143 1,000 -600 Descending FlightAware ADS-B (KHOU)
06:45PM 30.0072 -95.2841 271° West 127 146 800 -780 Descending FlightAware ADS-B (KHOU)
06:46PM 30.0072 -95.2947 271° West 128 147 600 -600 Descending FlightAware ADS-B (KHOU)
06:46PM 30.0072 -95.3051 269° West 130 150 500 -600 Descending FlightAware ADS-B (KHOU)
06:46PM 30.0072 -95.3151 272° West 129 148 300 -840 Descending FlightAware ADS-B (KHOU)
06:46PM 30.0072 -95.3261 270° West 139 160 100 -840 Descending FlightAware ADS-B (KHOU)